sensor_id;sensor_type;location;lat;lon;timestamp;pressure;altitude;pressure_sealevel;temperature;humidity
22753;BME280;11543;43.144;24.684;2023-05-19T00:01:56;98936.25;;;15.05;82.03
22753;BME280;11543;43.144;24.684;2023-05-19T00:04:25;98948.25;;;15.03;81.83
22753;BME280;11543;43.144;24.684;2023-05-19T00:06:52;98940.34;;;15.01;81.94
22753;BME280;11543;43.144;24.684;2023-05-19T00:09:19;98925.88;;;14.94;81.87
22753;BME280;11543;43.144;24.684;2023-05-19T00:11:44;98938.66;;;15.00;81.80
22753;BME280;11543;43.144;24.684;2023-05-19T00:14:10;98950.78;;;15.04;81.61
22753;BME280;11543;43.144;24.684;2023-05-19T00:16:37;98937.75;;;15.08;81.50
22753;BME280;11543;43.144;24.684;2023-05-19T00:19:04;98933.31;;;14.92;81.39
22753;BME280;11543;43.144;24.684;2023-05-19T00:21:30;98941.25;;;14.93;81.38
22753;BME280;11543;43.144;24.684;2023-05-19T00:23:56;98933.97;;;14.94;81.67
22753;BME280;11543;43.144;24.684;2023-05-19T00:26:23;98936.00;;;14.92;81.42
22753;BME280;11543;43.144;24.684;2023-05-19T00:28:49;98939.06;;;14.89;81.75
22753;BME280;11543;43.144;24.684;2023-05-19T00:31:15;98916.69;;;14.80;81.63
22753;BME280;11543;43.144;24.684;2023-05-19T00:33:40;98933.63;;;14.97;81.92
22753;BME280;11543;43.144;24.684;2023-05-19T00:36:06;98926.28;;;14.83;81.34
22753;BME280;11543;43.144;24.684;2023-05-19T00:38:34;98952.94;;;14.86;81.72
22753;BME280;11543;43.144;24.684;2023-05-19T00:41:01;98954.63;;;14.87;81.70
22753;BME280;11543;43.144;24.684;2023-05-19T00:43:27;98933.75;;;14.81;81.46
22753;BME280;11543;43.144;24.684;2023-05-19T00:45:54;98941.53;;;14.76;81.86
22753;BME280;11543;43.144;24.684;2023-05-19T00:48:20;98930.16;;;14.57;82.39
22753;BME280;11543;43.144;24.684;2023-05-19T00:50:47;98935.59;;;14.49;83.03
22753;BME280;11543;43.144;24.684;2023-05-19T00:53:13;98944.38;;;14.51;83.32
22753;BME280;11543;43.144;24.684;2023-05-19T00:55:41;98923.13;;;14.48;83.27
22753;BME280;11543;43.144;24.684;2023-05-19T00:58:08;98916.72;;;14.41;83.55
22753;BME280;11543;43.144;24.684;2023-05-19T01:00:34;98911.72;;;14.30;83.99
22753;BME280;11543;43.144;24.684;2023-05-19T01:03:01;98919.59;;;14.40;83.74
22753;BME280;11543;43.144;24.684;2023-05-19T01:05:27;98938.31;;;14.41;83.61
22753;BME280;11543;43.144;24.684;2023-05-19T01:07:52;98928.22;;;14.35;83.95
22753;BME280;11543;43.144;24.684;2023-05-19T01:10:21;98942.75;;;14.34;84.11
22753;BME280;11543;43.144;24.684;2023-05-19T01:12:47;98939.69;;;14.45;83.91
22753;BME280;11543;43.144;24.684;2023-05-19T01:15:13;98940.03;;;14.42;83.80
22753;BME280;11543;43.144;24.684;2023-05-19T01:18:08;98941.72;;;14.43;83.86
22753;BME280;11543;43.144;24.684;2023-05-19T01:20:46;98943.75;;;14.33;83.89
22753;BME280;11543;43.144;24.684;2023-05-19T01:23:33;98946.09;;;14.36;84.34
22753;BME280;11543;43.144;24.684;2023-05-19T01:29:02;98951.22;;;14.23;85.01
22753;BME280;11543;43.144;24.684;2023-05-19T01:31:32;98947.50;;;14.24;85.10
22753;BME280;11543;43.144;24.684;2023-05-19T01:33:58;98950.66;;;14.35;84.66
22753;BME280;11543;43.144;24.684;2023-05-19T01:36:24;98945.75;;;14.39;84.29
22753;BME280;11543;43.144;24.684;2023-05-19T01:38:53;98934.69;;;14.26;84.22
22753;BME280;11543;43.144;24.684;2023-05-19T01:41:21;98956.28;;;14.26;84.62
22753;BME280;11543;43.144;24.684;2023-05-19T01:43:48;98939.47;;;14.16;84.64
22753;BME280;11543;43.144;24.684;2023-05-19T01:46:16;98945.56;;;14.10;84.96
22753;BME280;11543;43.144;24.684;2023-05-19T01:48:45;98952.94;;;14.16;84.97
22753;BME280;11543;43.144;24.684;2023-05-19T01:51:11;98957.81;;;14.20;84.96
22753;BME280;11543;43.144;24.684;2023-05-19T01:53:37;98952.63;;;14.11;84.77
22753;BME280;11543;43.144;24.684;2023-05-19T01:56:03;98970.13;;;14.23;84.82
22753;BME280;11543;43.144;24.684;2023-05-19T01:58:46;98963.06;;;14.14;85.27
22753;BME280;11543;43.144;24.684;2023-05-19T02:04:03;98973.84;;;14.22;85.15
22753;BME280;11543;43.144;24.684;2023-05-19T02:07:08;98969.59;;;14.27;84.72
22753;BME280;11543;43.144;24.684;2023-05-19T02:14:52;98973.53;;;14.17;85.06
22753;BME280;11543;43.144;24.684;2023-05-19T02:17:19;98969.47;;;14.21;85.07
22753;BME280;11543;43.144;24.684;2023-05-19T02:19:46;98976.88;;;14.19;84.84
22753;BME280;11543;43.144;24.684;2023-05-19T02:22:12;98970.50;;;14.12;85.20
22753;BME280;11543;43.144;24.684;2023-05-19T02:24:37;98976.88;;;14.19;85.03
22753;BME280;11543;43.144;24.684;2023-05-19T02:27:04;98993.78;;;14.13;85.41
22753;BME280;11543;43.144;24.684;2023-05-19T02:29:29;98984.31;;;14.17;85.60
22753;BME280;11543;43.144;24.684;2023-05-19T02:31:55;98980.25;;;14.21;85.17
22753;BME280;11543;43.144;24.684;2023-05-19T02:34:20;98976.75;;;14.12;84.95
22753;BME280;11543;43.144;24.684;2023-05-19T02:36:47;98992.22;;;14.18;84.92
22753;BME280;11543;43.144;24.684;2023-05-19T02:39:14;98996.63;;;14.19;85.24
22753;BME280;11543;43.144;24.684;2023-05-19T02:41:40;98990.41;;;14.11;85.45
22753;BME280;11543;43.144;24.684;2023-05-19T02:44:06;99005.94;;;14.09;85.90
22753;BME280;11543;43.144;24.684;2023-05-19T02:46:32;99007.28;;;14.05;85.90
22753;BME280;11543;43.144;24.684;2023-05-19T02:48:57;99003.22;;;14.09;85.85
22753;BME280;11543;43.144;24.684;2023-05-19T02:51:23;98995.50;;;13.97;85.53
22753;BME280;11543;43.144;24.684;2023-05-19T02:53:48;99016.72;;;14.09;85.86
22753;BME280;11543;43.144;24.684;2023-05-19T02:56:14;99015.72;;;14.10;85.76
22753;BME280;11543;43.144;24.684;2023-05-19T02:58:40;99022.13;;;14.09;85.64
22753;BME280;11543;43.144;24.684;2023-05-19T03:01:07;99028.00;;;14.12;85.62
22753;BME280;11543;43.144;24.684;2023-05-19T03:03:33;99031.38;;;14.14;85.74
22753;BME280;11543;43.144;24.684;2023-05-19T03:05:59;99028.53;;;14.08;85.61
22753;BME280;11543;43.144;24.684;2023-05-19T03:08:24;99040.63;;;14.20;85.60
22753;BME280;11543;43.144;24.684;2023-05-19T03:10:49;99033.91;;;14.16;85.54
22753;BME280;11543;43.144;24.684;2023-05-19T03:13:15;99015.72;;;14.10;85.46
22753;BME280;11543;43.144;24.684;2023-05-19T03:15:41;99022.47;;;14.06;85.90
22753;BME280;11543;43.144;24.684;2023-05-19T03:18:07;99040.28;;;14.23;85.59
22753;BME280;11543;43.144;24.684;2023-05-19T03:20:32;99039.47;;;14.14;85.74
22753;BME280;11543;43.144;24.684;2023-05-19T03:22:58;99039.63;;;14.13;85.87
22753;BME280;11543;43.144;24.684;2023-05-19T03:25:24;99042.19;;;14.06;86.21
22753;BME280;11543;43.144;24.684;2023-05-19T03:27:50;99025.66;;;14.09;86.08
22753;BME280;11543;43.144;24.684;2023-05-19T03:30:15;99045.38;;;14.18;85.77
22753;BME280;11543;43.144;24.684;2023-05-19T03:32:41;99035.09;;;14.13;86.08
22753;BME280;11543;43.144;24.684;2023-05-19T03:35:07;99031.19;;;14.16;86.09
22753;BME280;11543;43.144;24.684;2023-05-19T03:37:32;99031.34;;;14.22;86.14
22753;BME280;11543;43.144;24.684;2023-05-19T03:39:58;99043.63;;;14.33;85.56
22753;BME280;11543;43.144;24.684;2023-05-19T03:42:24;99046.63;;;14.46;85.16
22753;BME280;11543;43.144;24.684;2023-05-19T03:44:50;99041.91;;;14.40;85.04
22753;BME280;11543;43.144;24.684;2023-05-19T03:47:16;99048.00;;;14.42;84.86
22753;BME280;11543;43.144;24.684;2023-05-19T03:49:41;99051.03;;;14.47;85.19
22753;BME280;11543;43.144;24.684;2023-05-19T03:52:07;99053.19;;;14.52;85.02
22753;BME280;11543;43.144;24.684;2023-05-19T03:54:34;99057.75;;;14.51;84.83
22753;BME280;11543;43.144;24.684;2023-05-19T03:57:00;99058.59;;;14.52;84.82
22753;BME280;11543;43.144;24.684;2023-05-19T03:59:26;99049.69;;;14.43;84.91
22753;BME280;11543;43.144;24.684;2023-05-19T04:01:52;99056.34;;;14.63;84.96
22753;BME280;11543;43.144;24.684;2023-05-19T04:04:17;99046.41;;;14.64;85.15
22753;BME280;11543;43.144;24.684;2023-05-19T04:06:43;99052.94;;;14.78;84.48
22753;BME280;11543;43.144;24.684;2023-05-19T04:09:13;99055.47;;;14.71;84.43
22753;BME280;11543;43.144;24.684;2023-05-19T04:11:41;99057.84;;;14.74;84.56
22753;BME280;11543;43.144;24.684;2023-05-19T04:14:07;99047.53;;;14.78;84.68
22753;BME280;11543;43.144;24.684;2023-05-19T04:16:33;99051.38;;;14.83;84.21
22753;BME280;11543;43.144;24.684;2023-05-19T04:18:59;99056.81;;;15.06;83.80
22753;BME280;11543;43.144;24.684;2023-05-19T04:21:25;99063.97;;;14.99;83.41
22753;BME280;11543;43.144;24.684;2023-05-19T04:23:52;99068.00;;;15.03;83.50
22753;BME280;11543;43.144;24.684;2023-05-19T04:26:17;99071.19;;;15.07;83.53
22753;BME280;11543;43.144;24.684;2023-05-19T04:28:46;99072.69;;;15.09;83.70
22753;BME280;11543;43.144;24.684;2023-05-19T04:31:15;99072.69;;;15.09;83.40
22753;BME280;11543;43.144;24.684;2023-05-19T04:33:42;99076.66;;;15.21;83.32
22753;BME280;11543;43.144;24.684;2023-05-19T04:36:13;99084.59;;;15.23;82.81
22753;BME280;11543;43.144;24.684;2023-05-19T04:38:41;99074.34;;;15.10;83.72
22753;BME280;11543;43.144;24.684;2023-05-19T04:41:07;99075.69;;;15.14;83.22
22753;BME280;11543;43.144;24.684;2023-05-19T04:43:37;99084.47;;;15.39;83.04
22753;BME280;11543;43.144;24.684;2023-05-19T04:46:14;99080.03;;;15.46;82.68
22753;BME280;11543;43.144;24.684;2023-05-19T04:48:40;99086.94;;;15.49;82.71
22753;BME280;11543;43.144;24.684;2023-05-19T04:51:07;99092.28;;;15.57;82.92
22753;BME280;11543;43.144;24.684;2023-05-19T04:53:33;99090.25;;;15.59;82.62
22753;BME280;11543;43.144;24.684;2023-05-19T04:56:00;99089.94;;;15.54;82.48
22753;BME280;11543;43.144;24.684;2023-05-19T04:58:26;99093.47;;;15.54;82.33
22753;BME280;11543;43.144;24.684;2023-05-19T05:00:52;99089.56;;;15.57;82.51
22753;BME280;11543;43.144;24.684;2023-05-19T05:03:22;99099.72;;;15.55;82.64
22753;BME280;11543;43.144;24.684;2023-05-19T05:05:51;99099.38;;;15.66;82.69
22753;BME280;11543;43.144;24.684;2023-05-19T05:08:17;99106.69;;;15.80;82.50
22753;BME280;11543;43.144;24.684;2023-05-19T05:10:49;99104.34;;;15.77;81.65
22753;BME280;11543;43.144;24.684;2023-05-19T05:13:17;99107.34;;;15.82;81.84
22753;BME280;11543;43.144;24.684;2023-05-19T05:15:43;99117.06;;;15.91;81.52
22753;BME280;11543;43.144;24.684;2023-05-19T05:18:09;99106.97;;;15.85;81.22
22753;BME280;11543;43.144;24.684;2023-05-19T05:20:35;99101.22;;;15.88;81.06
22753;BME280;11543;43.144;24.684;2023-05-19T05:23:01;99113.63;;;15.98;81.44
22753;BME280;11543;43.144;24.684;2023-05-19T05:25:27;99108.44;;;16.11;81.24
22753;BME280;11543;43.144;24.684;2023-05-19T05:27:53;99102.56;;;16.22;81.35
22753;BME280;11543;43.144;24.684;2023-05-19T05:30:18;99115.84;;;16.46;81.87
22753;BME280;11543;43.144;24.684;2023-05-19T05:32:44;99104.31;;;16.52;81.90
22753;BME280;11543;43.144;24.684;2023-05-19T05:35:10;99109.72;;;16.52;80.32
22753;BME280;11543;43.144;24.684;2023-05-19T05:37:36;99105.31;;;16.51;80.61
22753;BME280;11543;43.144;24.684;2023-05-19T05:40:01;99104.19;;;16.46;80.36
22753;BME280;11543;43.144;24.684;2023-05-19T05:42:28;99097.19;;;16.51;80.41
22753;BME280;11543;43.144;24.684;2023-05-19T05:44:53;99105.78;;;16.55;80.34
22753;BME280;11543;43.144;24.684;2023-05-19T05:47:19;99109.63;;;16.61;80.18
22753;BME280;11543;43.144;24.684;2023-05-19T05:49:44;99110.78;;;16.66;80.10
22753;BME280;11543;43.144;24.684;2023-05-19T05:52:12;99113.19;;;16.76;80.04
22753;BME280;11543;43.144;24.684;2023-05-19T05:54:39;99119.28;;;16.78;79.54
22753;BME280;11543;43.144;24.684;2023-05-19T05:57:05;99110.28;;;16.92;79.89
22753;BME280;11543;43.144;24.684;2023-05-19T05:59:31;99118.31;;;17.00;79.93
22753;BME280;11543;43.144;24.684;2023-05-19T06:01:57;99115.47;;;17.08;79.47
22753;BME280;11543;43.144;24.684;2023-05-19T06:04:23;99119.22;;;17.07;78.90
22753;BME280;11543;43.144;24.684;2023-05-19T06:06:49;99124.66;;;17.07;78.75
22753;BME280;11543;43.144;24.684;2023-05-19T06:09:17;99121.06;;;17.22;79.27
22753;BME280;11543;43.144;24.684;2023-05-19T06:11:42;99131.53;;;17.25;78.57
22753;BME280;11543;43.144;24.684;2023-05-19T06:14:08;99132.94;;;17.35;78.80
22753;BME280;11543;43.144;24.684;2023-05-19T06:16:34;99115.06;;;17.41;79.07
22753;BME280;11543;43.144;24.684;2023-05-19T06:18:59;99129.00;;;17.59;79.26
22753;BME280;11543;43.144;24.684;2023-05-19T06:21:25;99127.88;;;17.68;79.18
22753;BME280;11543;43.144;24.684;2023-05-19T06:23:50;99128.78;;;17.75;79.46
22753;BME280;11543;43.144;24.684;2023-05-19T06:26:16;99129.31;;;17.86;79.27
22753;BME280;11543;43.144;24.684;2023-05-19T06:28:41;99129.31;;;17.86;78.54
22753;BME280;11543;43.144;24.684;2023-05-19T06:31:07;99126.34;;;17.80;77.08
22753;BME280;11543;43.144;24.684;2023-05-19T06:33:32;99134.78;;;17.92;78.05
22753;BME280;11543;43.144;24.684;2023-05-19T06:35:58;99129.81;;;17.96;78.21
22753;BME280;11543;43.144;24.684;2023-05-19T06:38:23;99142.84;;;18.07;78.35
22753;BME280;11543;43.144;24.684;2023-05-19T06:40:50;99149.72;;;18.24;78.42
22753;BME280;11543;43.144;24.684;2023-05-19T06:43:16;99143.88;;;18.27;77.02
22753;BME280;11543;43.144;24.684;2023-05-19T06:45:42;99142.53;;;18.44;78.11
22753;BME280;11543;43.144;24.684;2023-05-19T06:48:07;99147.03;;;18.59;78.47
22753;BME280;11543;43.144;24.684;2023-05-19T06:50:33;99143.34;;;18.66;77.30
22753;BME280;11543;43.144;24.684;2023-05-19T06:52:58;99139.00;;;18.72;75.96
22753;BME280;11543;43.144;24.684;2023-05-19T06:55:24;99131.72;;;18.79;76.25
22753;BME280;11543;43.144;24.684;2023-05-19T06:57:49;99133.47;;;18.93;78.42
22753;BME280;11543;43.144;24.684;2023-05-19T07:00:15;99135.41;;;19.06;76.66
22753;BME280;11543;43.144;24.684;2023-05-19T07:02:41;99132.34;;;19.16;76.99
22753;BME280;11543;43.144;24.684;2023-05-19T07:05:06;99131.13;;;19.25;75.23
22753;BME280;11543;43.144;24.684;2023-05-19T07:07:32;99134.06;;;19.30;75.09
22753;BME280;11543;43.144;24.684;2023-05-19T07:09:57;99124.25;;;19.35;75.78
22753;BME280;11543;43.144;24.684;2023-05-19T07:12:23;99134.53;;;19.47;74.84
22753;BME280;11543;43.144;24.684;2023-05-19T07:14:51;99131.84;;;19.53;73.96
22753;BME280;11543;43.144;24.684;2023-05-19T07:17:18;99130.41;;;19.64;75.36
22753;BME280;11543;43.144;24.684;2023-05-19T07:19:44;99118.28;;;19.66;74.51
22753;BME280;11543;43.144;24.684;2023-05-19T07:22:09;99122.25;;;19.77;73.40
22753;BME280;11543;43.144;24.684;2023-05-19T07:24:35;99123.31;;;19.83;74.47
22753;BME280;11543;43.144;24.684;2023-05-19T07:27:01;99117.91;;;19.96;74.65
22753;BME280;11543;43.144;24.684;2023-05-19T07:29:26;99113.72;;;20.07;75.48
22753;BME280;11543;43.144;24.684;2023-05-19T07:31:52;99107.84;;;20.16;74.28
22753;BME280;11543;43.144;24.684;2023-05-19T07:34:22;99113.91;;;20.31;73.76
22753;BME280;11543;43.144;24.684;2023-05-19T07:36:48;99120.41;;;20.37;74.44
22753;BME280;11543;43.144;24.684;2023-05-19T07:39:13;99117.09;;;20.42;70.55
22753;BME280;11543;43.144;24.684;2023-05-19T07:41:39;99114.34;;;20.48;70.95
22753;BME280;11543;43.144;24.684;2023-05-19T07:44:04;99112.22;;;20.57;71.64
22753;BME280;11543;43.144;24.684;2023-05-19T07:46:33;99109.09;;;20.60;67.43
22753;BME280;11543;43.144;24.684;2023-05-19T07:48:58;99117.44;;;20.78;69.12
22753;BME280;11543;43.144;24.684;2023-05-19T07:51:24;99110.50;;;20.89;69.96
22753;BME280;11543;43.144;24.684;2023-05-19T07:53:49;99116.50;;;21.11;69.59
22753;BME280;11543;43.144;24.684;2023-05-19T07:56:15;99108.91;;;21.19;67.34
22753;BME280;11543;43.144;24.684;2023-05-19T07:58:41;99114.28;;;21.39;67.60
22753;BME280;11543;43.144;24.684;2023-05-19T08:01:06;99114.66;;;21.49;67.88
22753;BME280;11543;43.144;24.684;2023-05-19T08:03:32;99114.56;;;21.69;67.54
22753;BME280;11543;43.144;24.684;2023-05-19T08:05:58;99113.41;;;21.83;64.97
22753;BME280;11543;43.144;24.684;2023-05-19T08:08:23;99112.84;;;22.06;64.25
22753;BME280;11543;43.144;24.684;2023-05-19T08:10:49;99122.09;;;22.30;64.01
22753;BME280;11543;43.144;24.684;2023-05-19T08:13:15;99111.78;;;22.57;61.43
22753;BME280;11543;43.144;24.684;2023-05-19T08:15:41;99118.22;;;22.87;60.66
22753;BME280;11543;43.144;24.684;2023-05-19T08:18:06;99116.31;;;23.06;59.97
22753;BME280;11543;43.144;24.684;2023-05-19T08:20:32;99115.59;;;23.11;59.12
22753;BME280;11543;43.144;24.684;2023-05-19T08:23:01;99117.44;;;23.17;60.00
22753;BME280;11543;43.144;24.684;2023-05-19T08:25:52;99122.91;;;23.17;59.79
22753;BME280;11543;43.144;24.684;2023-05-19T08:28:18;99127.91;;;23.20;58.74
22753;BME280;11543;43.144;24.684;2023-05-19T08:30:43;99108.53;;;23.22;60.48
22753;BME280;11543;43.144;24.684;2023-05-19T08:33:08;99128.13;;;23.37;60.66
22753;BME280;11543;43.144;24.684;2023-05-19T08:35:34;99118.78;;;23.44;57.61
22753;BME280;11543;43.144;24.684;2023-05-19T08:38:00;99130.22;;;23.71;57.65
22753;BME280;11543;43.144;24.684;2023-05-19T08:40:26;99129.00;;;23.97;56.19
22753;BME280;11543;43.144;24.684;2023-05-19T08:42:55;99121.88;;;24.20;55.88
22753;BME280;11543;43.144;24.684;2023-05-19T08:45:20;99120.41;;;24.35;54.36
22753;BME280;11543;43.144;24.684;2023-05-19T08:47:46;99123.97;;;24.48;53.50
22753;BME280;11543;43.144;24.684;2023-05-19T08:50:16;99132.09;;;24.66;53.33
22753;BME280;11543;43.144;24.684;2023-05-19T08:53:03;99131.00;;;24.78;53.95
22753;BME280;11543;43.144;24.684;2023-05-19T08:55:55;99137.69;;;24.83;54.21
22753;BME280;11543;43.144;24.684;2023-05-19T08:58:23;99142.09;;;25.07;53.69
22753;BME280;11543;43.144;24.684;2023-05-19T09:00:51;99133.13;;;25.23;56.39
22753;BME280;11543;43.144;24.684;2023-05-19T09:03:18;99127.94;;;25.38;52.01
22753;BME280;11543;43.144;24.684;2023-05-19T09:05:44;99120.63;;;25.44;51.14
22753;BME280;11543;43.144;24.684;2023-05-19T09:08:10;99119.50;;;25.57;50.14
22753;BME280;11543;43.144;24.684;2023-05-19T09:10:36;99131.31;;;25.69;49.74
22753;BME280;11543;43.144;24.684;2023-05-19T09:13:01;99132.00;;;25.76;51.02
22753;BME280;11543;43.144;24.684;2023-05-19T09:15:29;99118.34;;;25.81;51.10
22753;BME280;11543;43.144;24.684;2023-05-19T09:20:32;99130.91;;;26.06;50.65
22753;BME280;11543;43.144;24.684;2023-05-19T09:23:00;99121.16;;;26.15;50.54
22753;BME280;11543;43.144;24.684;2023-05-19T09:25:26;99115.91;;;26.30;48.86
22753;BME280;11543;43.144;24.684;2023-05-19T09:27:53;99117.84;;;26.46;49.07
22753;BME280;11543;43.144;24.684;2023-05-19T09:30:19;99125.75;;;26.59;48.01
22753;BME280;11543;43.144;24.684;2023-05-19T09:32:45;99123.22;;;26.75;47.58
22753;BME280;11543;43.144;24.684;2023-05-19T09:35:12;99117.03;;;26.84;46.67
22753;BME280;11543;43.144;24.684;2023-05-19T09:37:41;99124.03;;;26.92;46.74
22753;BME280;11543;43.144;24.684;2023-05-19T09:40:08;99120.53;;;26.96;46.63
22753;BME280;11543;43.144;24.684;2023-05-19T09:42:37;99114.94;;;27.08;47.76
22753;BME280;11543;43.144;24.684;2023-05-19T09:45:03;99108.97;;;27.16;47.79
22753;BME280;11543;43.144;24.684;2023-05-19T09:47:36;99112.75;;;27.32;48.32
22753;BME280;11543;43.144;24.684;2023-05-19T09:50:07;99103.75;;;27.42;49.05
22753;BME280;11543;43.144;24.684;2023-05-19T09:52:36;99095.28;;;27.48;49.50
22753;BME280;11543;43.144;24.684;2023-05-19T09:55:08;99094.25;;;27.54;50.01
22753;BME280;11543;43.144;24.684;2023-05-19T09:57:34;99098.41;;;27.57;47.98
22753;BME280;11543;43.144;24.684;2023-05-19T10:00:05;99084.25;;;27.70;48.01
22753;BME280;11543;43.144;24.684;2023-05-19T10:02:41;99093.34;;;27.71;46.70
22753;BME280;11543;43.144;24.684;2023-05-19T10:05:14;99078.34;;;27.83;47.68
22753;BME280;11543;43.144;24.684;2023-05-19T10:07:45;99088.97;;;28.02;46.18
22753;BME280;11543;43.144;24.684;2023-05-19T10:10:13;99089.16;;;28.22;46.91
22753;BME280;11543;43.144;24.684;2023-05-19T10:12:39;99084.34;;;28.39;45.94
22753;BME280;11543;43.144;24.684;2023-05-19T10:15:08;99093.03;;;28.58;44.58
22753;BME280;11543;43.144;24.684;2023-05-19T10:17:37;99086.19;;;28.66;43.94
22753;BME280;11543;43.144;24.684;2023-05-19T10:20:03;99076.31;;;28.75;43.80
22753;BME280;11543;43.144;24.684;2023-05-19T10:22:31;99070.78;;;28.75;42.81
22753;BME280;11543;43.144;24.684;2023-05-19T10:24:57;99081.28;;;28.78;43.39
22753;BME280;11543;43.144;24.684;2023-05-19T10:27:24;99075.03;;;28.88;43.18
22753;BME280;11543;43.144;24.684;2023-05-19T10:29:53;99059.31;;;28.93;43.53
22753;BME280;11543;43.144;24.684;2023-05-19T10:32:22;99058.78;;;29.01;42.20
22753;BME280;11543;43.144;24.684;2023-05-19T10:37:54;99061.69;;;29.42;41.74
22753;BME280;11543;43.144;24.684;2023-05-19T10:40:27;99066.66;;;29.40;39.52
22753;BME280;11543;43.144;24.684;2023-05-19T10:45:37;99064.41;;;29.32;42.83
22753;BME280;11543;43.144;24.684;2023-05-19T10:48:10;99054.00;;;29.49;42.00
22753;BME280;11543;43.144;24.684;2023-05-19T10:50:36;99057.34;;;29.61;41.29
22753;BME280;11543;43.144;24.684;2023-05-19T10:53:02;99053.75;;;29.66;40.44
22753;BME280;11543;43.144;24.684;2023-05-19T10:56:01;99052.94;;;29.55;40.39
22753;BME280;11543;43.144;24.684;2023-05-19T11:01:13;99068.72;;;29.75;39.36
22753;BME280;11543;43.144;24.684;2023-05-19T11:03:49;99068.16;;;29.68;41.75
22753;BME280;11543;43.144;24.684;2023-05-19T11:06:21;99053.22;;;29.64;40.61
22753;BME280;11543;43.144;24.684;2023-05-19T11:08:59;99060.13;;;29.76;40.00
22753;BME280;11543;43.144;24.684;2023-05-19T11:11:26;99063.47;;;29.89;37.51
22753;BME280;11543;43.144;24.684;2023-05-19T11:14:06;99062.38;;;30.20;38.92
22753;BME280;11543;43.144;24.684;2023-05-19T11:16:35;99046.88;;;30.29;39.58
22753;BME280;11543;43.144;24.684;2023-05-19T11:19:00;99049.09;;;30.37;39.17
22753;BME280;11543;43.144;24.684;2023-05-19T11:22:08;99061.81;;;30.69;38.38
22753;BME280;11543;43.144;24.684;2023-05-19T11:24:43;99052.66;;;30.73;36.77
22753;BME280;11543;43.144;24.684;2023-05-19T11:27:29;99056.28;;;30.28;38.23
22753;BME280;11543;43.144;24.684;2023-05-19T11:30:07;99047.44;;;30.11;39.78
22753;BME280;11543;43.144;24.684;2023-05-19T11:32:35;99045.78;;;30.25;38.34
22753;BME280;11543;43.144;24.684;2023-05-19T11:35:06;99042.44;;;30.33;38.27
22753;BME280;11543;43.144;24.684;2023-05-19T11:37:32;99031.38;;;30.33;37.51
22753;BME280;11543;43.144;24.684;2023-05-19T11:40:05;99027.50;;;30.34;37.08
22753;BME280;11543;43.144;24.684;2023-05-19T11:42:32;99029.72;;;30.32;39.29
22753;BME280;11543;43.144;24.684;2023-05-19T11:44:59;99010.34;;;30.27;39.70
22753;BME280;11543;43.144;24.684;2023-05-19T11:47:32;99028.63;;;30.38;38.49
22753;BME280;11543;43.144;24.684;2023-05-19T11:49:58;99025.84;;;30.43;39.07
22753;BME280;11543;43.144;24.684;2023-05-19T11:52:24;99022.53;;;30.26;37.42
22753;BME280;11543;43.144;24.684;2023-05-19T11:54:50;99018.94;;;30.10;38.54
22753;BME280;11543;43.144;24.684;2023-05-19T11:57:16;99018.13;;;30.05;38.86
22753;BME280;11543;43.144;24.684;2023-05-19T11:59:42;99008.69;;;29.96;37.45
22753;BME280;11543;43.144;24.684;2023-05-19T12:02:21;99012.00;;;29.98;38.04
22753;BME280;11543;43.144;24.684;2023-05-19T12:04:53;99005.66;;;29.97;36.58
22753;BME280;11543;43.144;24.684;2023-05-19T12:07:21;99012.56;;;29.95;39.38
22753;BME280;11543;43.144;24.684;2023-05-19T12:09:49;98998.72;;;30.00;39.92
22753;BME280;11543;43.144;24.684;2023-05-19T12:12:21;98985.47;;;29.92;37.13
22753;BME280;11543;43.144;24.684;2023-05-19T12:14:49;98991.00;;;30.12;37.28
22753;BME280;11543;43.144;24.684;2023-05-19T12:17:17;98984.88;;;30.40;37.34
22753;BME280;11543;43.144;24.684;2023-05-19T12:19:48;98982.34;;;30.54;36.13
22753;BME280;11543;43.144;24.684;2023-05-19T12:22:15;98975.72;;;30.50;36.10
22753;BME280;11543;43.144;24.684;2023-05-19T12:24:42;99000.91;;;30.49;34.97
22753;BME280;11543;43.144;24.684;2023-05-19T12:27:18;98998.97;;;30.34;35.75
22753;BME280;11543;43.144;24.684;2023-05-19T12:29:51;98983.81;;;30.11;35.99
22753;BME280;11543;43.144;24.684;2023-05-19T12:32:17;98994.31;;;30.04;37.04
22753;BME280;11543;43.144;24.684;2023-05-19T12:34:44;98989.34;;;30.06;37.13
22753;BME280;11543;43.144;24.684;2023-05-19T12:37:11;98992.66;;;30.18;37.38
22753;BME280;11543;43.144;24.684;2023-05-19T12:39:40;98984.31;;;30.28;36.61
22753;BME280;11543;43.144;24.684;2023-05-19T12:42:07;98969.91;;;30.31;38.02
22753;BME280;11543;43.144;24.684;2023-05-19T12:44:36;98976.56;;;30.40;36.43
22753;BME280;11543;43.144;24.684;2023-05-19T12:47:05;98966.56;;;30.55;37.43
22753;BME280;11543;43.144;24.684;2023-05-19T12:49:32;98971.47;;;30.78;36.82
22753;BME280;11543;43.144;24.684;2023-05-19T12:55:15;98960.28;;;30.98;34.90
22753;BME280;11543;43.144;24.684;2023-05-19T12:57:46;98969.09;;;31.05;35.64
22753;BME280;11543;43.144;24.684;2023-05-19T13:00:14;98956.97;;;30.96;35.33
22753;BME280;11543;43.144;24.684;2023-05-19T13:05:33;98959.22;;;30.89;35.53
22753;BME280;11543;43.144;24.684;2023-05-19T13:08:06;98957.22;;;31.00;34.57
22753;BME280;11543;43.144;24.684;2023-05-19T13:10:32;98961.09;;;31.04;35.52
22753;BME280;11543;43.144;24.684;2023-05-19T13:12:59;98957.47;;;31.03;36.38
22753;BME280;11543;43.144;24.684;2023-05-19T13:15:26;98972.31;;;30.79;34.87
22753;BME280;11543;43.144;24.684;2023-05-19T13:17:53;98979.59;;;30.59;34.70
22753;BME280;11543;43.144;24.684;2023-05-19T13:20:22;98978.81;;;29.77;35.75
22753;BME280;11543;43.144;24.684;2023-05-19T13:22:48;98995.84;;;28.56;37.02